• Join FlightAware (Why Join?)
  • Login
  • US Flag 
01:23PM EDT


 

Airport Tracker/Info


-or-


 

Live Flight TrackerFlight Track Log ✈ USC491 ✈ 31-Jan-2014 ✈ KADS - KHOU

Flight Track Log - Related Links

Times and Time Zones

All times are in EST time to prevent confusion due to time zone crossing. See the USC491 flight status page for this flight to view local times or setup timezone preferences in your user account.

Time Position Orientation Groundspeed Altitude Reporting Facility
EST Latitude Longitude Course Direction KTS MPH feet Rate Location/Type
08:19AM 32.9667 -96.8333 180° South 85 98 1,000  Level Dallas / Fort Worth TRACON
08:19AM 32.9500 -96.8333 180° South 84 97 1,400 900 Climbing Dallas / Fort Worth TRACON
08:20AM 32.9333 -96.8167 140° Southeast 103 119 2,200 720 Climbing Dallas / Fort Worth TRACON
08:21AM 32.9167 -96.8167 180° South 108 124 2,900 540 Climbing Dallas / Fort Worth TRACON
08:22AM 32.8833 -96.8333 203° Southwest 103 119 3,300 480 Climbing Dallas / Fort Worth TRACON
08:23AM 32.8667 -96.8500 220° Southwest 99 114 3,900 300 Climbing Dallas / Fort Worth TRACON
08:24AM 32.8333 -96.8667 203° Southwest 131 151 3,900 -60 Level Dallas / Fort Worth TRACON
08:25AM 32.7833 -96.8667 180° South 137 158 3,800  Descending Dallas / Fort Worth TRACON
08:26AM 32.7500 -96.8833 203° Southwest 142 163 3,900  Climbing Dallas / Fort Worth TRACON
08:27AM 32.7167 -96.8833 180° South 142 163 3,900 180 Level Dallas / Fort Worth TRACON
08:28AM 32.6667 -96.8833 180° South 141 162 4,300 720 Climbing Dallas / Fort Worth TRACON
08:29AM 32.6500 -96.8833 180° South 103 119 5,300 780 Climbing Dallas / Fort Worth TRACON
08:30AM 32.6167 -96.8667 157° South 101 116 5,900 360 Climbing Dallas / Fort Worth TRACON
08:31AM 32.5967 -96.8736 196° South 121 139 5,900 540 Level Fort Worth Center
08:32AM 32.5575 -96.8636 168° South 128 147 6,800 780 Climbing Fort Worth Center
08:33AM 32.5283 -96.8578 170° South 109 125 7,600 480 Climbing Fort Worth Center
08:34AM 32.4981 -96.8525 172° South 114 131 7,900 120 Climbing Fort Worth Center
08:35AM 32.4561 -96.8461 173° South 149 171 7,900  Level Fort Worth Center
08:36AM 32.4092 -96.8414 175° South 157 181 7,900  Level Fort Worth Center
08:37AM 32.3658 -96.8372 175° South 157 181 7,900 -60 Level Fort Worth Center
08:38AM 32.3206 -96.8314 174° South 162 186 7,800  Descending Fort Worth Center
08:39AM 32.2731 -96.8244 173° South 160 184 8,000 480 Climbing Fort Worth Center
08:40AM 32.2367 -96.8111 163° South 134 154 8,800 420 Climbing Fort Worth Center
08:41AM 32.1994 -96.7967 162° South 143 165 8,900  Climbing Fort Worth Center
08:42AM 32.1561 -96.7811 163° South 159 183 8,800  Descending Fort Worth Center
08:43AM 32.1133 -96.7700 168° South 158 182 8,900  Climbing Fort Worth Center
08:44AM 32.0703 -96.7622 171° South 156 180 8,900  Level Fort Worth Center
08:45AM 32.0256 -96.7564 174° South 160 184 8,900  Level Fort Worth Center
08:46AM 31.9731 -96.7517 176° South 158 182 8,900 -60 Level Fort Worth Center
08:47AM 31.9356 -96.7450 171° South 156 180 8,800  Descending Fort Worth Center
08:48AM 31.8897 -96.7342 169° South 164 189 8,900  Climbing Fort Worth Center
08:49AM 31.8461 -96.7225 167° South 162 186 8,800  Descending Fort Worth Center
08:50AM 31.7944 -96.7103 169° South 160 184 8,900  Climbing Fort Worth Center
08:51AM 31.7489 -96.6978 167° South 164 189 8,900  Level Fort Worth Center
08:52AM 31.7033 -96.6864 168° South 165 190 8,900 -60 Level Fort Worth Center
08:53AM 31.6583 -96.6714 164° South 166 191 8,800 -60 Descending Fort Worth Center
08:54AM 31.6117 -96.6550 163° South 170 196 8,800  Level Fort Worth Center
08:55AM 31.5672 -96.6383 162° South 168 193 8,800  Level Fort Worth Center
08:56AM 31.5214 -96.6231 164° South 168 193 8,800  Level Fort Worth Center
08:58AM 31.4758 -96.6086 165° South 168 193 8,800  Level Fort Worth Center
08:59AM 31.4300 -96.5933 164° South 168 193 8,800  Level Fort Worth Center
09:00AM 31.3842 -96.5775 164° South 170 196 8,800  Level Fort Worth Center
09:01AM 31.3383 -96.5625 164° South 169 194 8,800  Level Fort Worth Center
09:02AM 31.2850 -96.5419 162° South 172 198 8,800  Level Fort Worth Center
09:03AM 31.2381 -96.5267 164° South 173 199 8,900  Climbing Fort Worth Center
09:04AM 31.1919 -96.5156 168° South 169 194 8,900  Level Fort Worth Center
09:05AM 31.1456 -96.5081 172° South 167 192 8,900  Level Fort Worth Center
09:06AM 31.0986 -96.5003 172° South 168 193 8,900  Level Fort Worth Center
09:07AM 31.0519 -96.4939 173° South 166 191 8,900  Level Fort Worth Center
09:08AM 31.0056 -96.4875 173° South 166 191 8,900  Level Fort Worth Center
09:09AM 30.9597 -96.4803 172° South 164 189 8,900  Level Fort Worth Center
09:10AM 30.9142 -96.4708 170° South 164 189 8,900  Level Fort Worth Center
09:11AM 30.8681 -96.4633 172° South 166 191 8,900  Level Fort Worth Center
09:11AM 30.8372 -96.4575 171° South 166 191 8,900 -300 Level Houston Center
09:12AM 30.7961 -96.4508 172° South 172 198 8,500 -540 Descending Houston Center
09:13AM 30.7819 -96.4492 174° South 181 208 8,300 -720 Descending Houston Center
09:13AM 30.7419 -96.4392 168° South 190 219 7,800 -720 Descending Houston Center
09:14AM 30.7264 -96.4358 170° South 198 228 7,600 -600 Descending Houston Center
09:14AM 30.6875 -96.4283 171° South 197 227 7,200 -600 Descending Houston Center
09:14AM 30.6772 -96.4267 172° South 200 230 7,100 -300 Descending Houston Center
09:16AM 30.6242 -96.4181 172° South 187 215 6,900 -120 Descending Houston Center
09:16AM 30.5864 -96.4103 170° South 177 204 6,900  Level Houston Center
09:17AM 30.5750 -96.4089 174° South 171 197 6,900  Level Houston Center
09:17AM 30.5392 -96.3967 164° South 173 199 6,900  Level Houston Center
09:18AM 30.5300 -96.3944 168° South 169 194 6,900 60 Level Houston Center
09:18AM 30.4942 -96.3786 159° South 171 197 7,000  Climbing Houston Center
09:19AM 30.4842 -96.3731 154° Southeast 172 198 6,900 -120 Descending Houston Center
09:20AM 30.4408 -96.3564 162° South 174 200 6,900  Level Houston Center
09:20AM 30.4322 -96.3544 169° South 169 194 6,900  Level Houston Center
09:21AM 30.3953 -96.3397 161° South 170 196 6,900  Level Houston Center
09:21AM 30.3911 -96.3397 180° South 170 196 6,900 180 Level Houston Center
09:22AM 30.3486 -96.3275 166° South 171 197 7,100 60 Climbing Houston Center
09:22AM 30.3436 -96.3256 161° South 171 197 7,000 -120 Descending Houston Center
09:23AM 30.3033 -96.3097 161° South 171 197 7,000 -120 Level Houston Center
09:23AM 30.3003 -96.3086 163° South 170 196 6,900  Descending Houston Center
09:24AM 30.2572 -96.2911 161° South 173 199 7,000  Climbing Houston Center
09:24AM 30.2528 -96.2922 192° South 172 198 6,900  Descending Houston Center
09:25AM 30.2108 -96.2775 163° South 170 196 7,000  Climbing Houston Center
09:25AM 30.2053 -96.2758 165° South 170 196 6,900 -120 Descending Houston Center
09:26AM 30.1639 -96.2586 160° South 172 198 6,900 60 Level Houston Center
09:26AM 30.1658 -96.2586 360° North 170 196 7,000 60 Climbing Houston Center
09:27AM 30.1186 -96.2417 163° South 171 197 7,000 -420 Level Houston Center
09:28AM 30.0622 -96.2219 163° South 185 213 6,200 -720 Descending Houston Center
09:28AM 30.0703 -96.2231 353° North 181 208 6,300 -660 Climbing Houston Center
09:29AM 30.0297 -96.1844 140° Southeast 193 222 5,600 -600 Descending Houston Center
09:29AM 30.0311 -96.1842 10° North 191 220 5,700 -660 Climbing Houston Center
09:30AM 29.9969 -96.1206 122° Southeast 197 227 4,900 -720 Descending Houston Center
09:30AM 30.0011 -96.1311 295° West 196 226 5,000  Climbing Houston Center
09:31AM 29.9758 -96.0700 116° Southeast 174 200 4,900  Descending Houston Center
09:31AM 29.9756 -96.0683 101° East 180 207 5,000  Climbing Houston Center
09:32AM 29.9550 -96.0242 118° Southeast 174 200 4,900  Descending Houston Center
09:32AM 29.9539 -96.0186 103° East 173 199 5,000 -300 Climbing Houston Center
09:33AM 29.9339 -95.9736 117° Southeast 175 201 4,600 -240 Descending Houston Center
09:33AM 29.9350 -95.9744 327° Northwest 176 203 4,800 -300 Climbing Houston Center
09:34AM 29.9119 -95.9133 114° Southeast 178 205 4,300 -540 Descending Houston Center
09:34AM 29.9128 -95.9117 60° Northeast 177 204 4,300 -480 Level Houston Center
09:35AM 29.8972 -95.8583 109° East 176 203 3,800 -600 Descending Houston Center
09:36AM 29.8847 -95.8178 110° East 175 201 3,300 -600 Descending Houston Center
09:36AM 29.8811 -95.8047 108° East 176 203 3,200 -300 Descending Houston Center
09:37AM 29.8669 -95.7597 110° East 169 194 3,000 -240 Descending Houston Center
09:37AM 29.8653 -95.7533 107° East 173 199 3,000 60 Level Houston Center
09:38AM 29.8519 -95.7083 109° East 159 183 3,100  Climbing Houston Center
09:38AM 29.8514 -95.7050 101° East 164 189 3,000  Descending Houston Center
09:39AM 29.8369 -95.6597 110° East 160 184 3,100 60 Climbing Houston Center
09:39AM 29.8372 -95.6575 82° East 159 183 3,100  Level Houston Center
09:40AM 29.8242 -95.6106 108° East 160 184 3,100  Level Houston Center
09:40AM 29.8247 -95.6078 77° East 160 184 3,100  Level Houston Center
09:41AM 29.8111 -95.5592 108° East 161 185 3,100 -120 Level Houston Center
09:41AM 29.8089 -95.5481 103° East 161 185 3,000  Descending Houston Center
09:42AM 29.7981 -95.5078 107° East 165 190 3,100 60 Climbing Houston Center
09:42AM 29.7956 -95.4969 105° East 163 188 3,100 -240 Level Houston Center
09:43AM 29.7914 -95.4556 97° East 161 185 2,900 -240 Descending Houston Center
09:43AM 29.7889 -95.4444 105° East 165 190 2,900 -420 Level Houston Center
09:44AM 29.7667 -95.4153 131° Southeast 145 167 2,500 -540 Descending Houston Center
09:44AM 29.7617 -95.4083 130° Southeast 156 180 2,400 -480 Descending Houston Center
09:45AM 29.7392 -95.3897 144° Southeast 142 163 2,100 -300 Descending Houston Center
09:45AM 29.7319 -95.3808 133° Southeast 146 168 2,100 -180 Level Houston Center
09:46AM 29.7064 -95.3528 136° Southeast 144 166 1,900 -300 Descending Houston Center
09:46AM 29.7042 -95.3486 122° Southeast 143 165 1,800 -600 Descending Houston Center
09:47AM 29.6803 -95.3197 134° Southeast 137 158 1,300 -720 Descending Houston Center
09:47AM 29.6769 -95.3156 133° Southeast 143 165 1,100 -900 Descending Houston Center
09:48AM 29.6592 -95.2958 136° Southeast 104 120 400 -840 Descending Houston Center
09:48AM 29.6564 -95.2911 124° Southeast 128 147 300 -360 Descending Houston Center